sensor_id;sensor_type;location;lat;lon;timestamp;P1;durP1;ratioP1;P2;durP2;ratioP2
67986;SDS011;54767;53.800;15.956;2023-05-07T00:02:06;9.30;;;5.00;;
67986;SDS011;54767;53.800;15.956;2023-05-07T00:04:35;8.90;;;5.00;;
67986;SDS011;54767;53.800;15.956;2023-05-07T00:07:05;8.90;;;5.10;;
67986;SDS011;54767;53.800;15.956;2023-05-07T00:09:34;7.60;;;5.00;;
67986;SDS011;54767;53.800;15.956;2023-05-07T00:12:02;7.10;;;4.90;;
67986;SDS011;54767;53.800;15.956;2023-05-07T00:14:41;8.80;;;4.80;;
67986;SDS011;54767;53.800;15.956;2023-05-07T00:17:09;7.00;;;5.00;;
67986;SDS011;54767;53.800;15.956;2023-05-07T00:19:38;9.40;;;5.10;;
67986;SDS011;54767;53.800;15.956;2023-05-07T00:22:07;9.60;;;5.50;;
67986;SDS011;54767;53.800;15.956;2023-05-07T00:24:36;7.90;;;5.10;;
67986;SDS011;54767;53.800;15.956;2023-05-07T00:27:04;11.90;;;5.50;;
67986;SDS011;54767;53.800;15.956;2023-05-07T00:29:33;9.30;;;5.10;;
67986;SDS011;54767;53.800;15.956;2023-05-07T00:32:01;8.50;;;5.30;;
67986;SDS011;54767;53.800;15.956;2023-05-07T00:34:30;8.90;;;5.60;;
67986;SDS011;54767;53.800;15.956;2023-05-07T00:36:58;10.00;;;5.60;;
67986;SDS011;54767;53.800;15.956;2023-05-07T00:39:27;10.40;;;5.30;;
67986;SDS011;54767;53.800;15.956;2023-05-07T00:41:55;10.30;;;5.90;;
67986;SDS011;54767;53.800;15.956;2023-05-07T00:44:23;9.70;;;5.70;;
67986;SDS011;54767;53.800;15.956;2023-05-07T00:46:52;10.30;;;6.10;;
67986;SDS011;54767;53.800;15.956;2023-05-07T00:51:50;9.00;;;5.50;;
67986;SDS011;54767;53.800;15.956;2023-05-07T00:54:19;7.90;;;4.90;;
67986;SDS011;54767;53.800;15.956;2023-05-07T00:56:48;7.70;;;4.60;;
67986;SDS011;54767;53.800;15.956;2023-05-07T00:59:16;9.20;;;4.60;;
67986;SDS011;54767;53.800;15.956;2023-05-07T01:01:44;9.50;;;5.10;;
67986;SDS011;54767;53.800;15.956;2023-05-07T01:04:13;7.80;;;4.80;;
67986;SDS011;54767;53.800;15.956;2023-05-07T01:06:42;9.40;;;5.60;;
67986;SDS011;54767;53.800;15.956;2023-05-07T01:09:12;9.60;;;5.00;;
67986;SDS011;54767;53.800;15.956;2023-05-07T01:11:40;8.50;;;5.10;;
67986;SDS011;54767;53.800;15.956;2023-05-07T01:14:09;10.00;;;5.80;;
67986;SDS011;54767;53.800;15.956;2023-05-07T01:16:38;9.80;;;5.00;;
67986;SDS011;54767;53.800;15.956;2023-05-07T01:19:07;10.00;;;5.50;;
67986;SDS011;54767;53.800;15.956;2023-05-07T01:24:05;7.00;;;4.80;;
67986;SDS011;54767;53.800;15.956;2023-05-07T01:26:34;7.30;;;4.90;;
67986;SDS011;54767;53.800;15.956;2023-05-07T01:29:02;9.80;;;5.10;;
67986;SDS011;54767;53.800;15.956;2023-05-07T01:31:30;8.70;;;4.90;;
67986;SDS011;54767;53.800;15.956;2023-05-07T01:34:01;7.40;;;5.10;;
67986;SDS011;54767;53.800;15.956;2023-05-07T01:36:32;8.00;;;4.30;;
67986;SDS011;54767;53.800;15.956;2023-05-07T01:39:01;9.70;;;5.40;;
67986;SDS011;54767;53.800;15.956;2023-05-07T01:41:30;8.80;;;5.10;;
67986;SDS011;54767;53.800;15.956;2023-05-07T01:43:58;9.20;;;5.20;;
67986;SDS011;54767;53.800;15.956;2023-05-07T01:46:27;11.90;;;6.20;;
67986;SDS011;54767;53.800;15.956;2023-05-07T01:48:56;10.30;;;5.50;;
67986;SDS011;54767;53.800;15.956;2023-05-07T01:51:25;8.30;;;5.10;;
67986;SDS011;54767;53.800;15.956;2023-05-07T01:53:54;9.80;;;5.30;;
67986;SDS011;54767;53.800;15.956;2023-05-07T01:56:22;8.60;;;4.90;;
67986;SDS011;54767;53.800;15.956;2023-05-07T01:58:50;8.30;;;4.80;;
67986;SDS011;54767;53.800;15.956;2023-05-07T02:01:19;8.60;;;5.10;;
67986;SDS011;54767;53.800;15.956;2023-05-07T02:03:49;7.50;;;5.10;;
67986;SDS011;54767;53.800;15.956;2023-05-07T02:06:18;9.30;;;4.70;;
67986;SDS011;54767;53.800;15.956;2023-05-07T02:08:47;7.80;;;4.50;;
67986;SDS011;54767;53.800;15.956;2023-05-07T02:11:15;6.50;;;4.30;;
67986;SDS011;54767;53.800;15.956;2023-05-07T02:13:43;7.40;;;4.40;;
67986;SDS011;54767;53.800;15.956;2023-05-07T02:16:11;7.00;;;4.40;;
67986;SDS011;54767;53.800;15.956;2023-05-07T02:18:42;7.50;;;4.30;;
67986;SDS011;54767;53.800;15.956;2023-05-07T02:21:10;8.90;;;4.90;;
67986;SDS011;54767;53.800;15.956;2023-05-07T02:23:38;8.30;;;5.10;;
67986;SDS011;54767;53.800;15.956;2023-05-07T02:26:06;10.90;;;5.60;;
67986;SDS011;54767;53.800;15.956;2023-05-07T02:28:35;8.10;;;4.90;;
67986;SDS011;54767;53.800;15.956;2023-05-07T02:31:03;8.30;;;5.10;;
67986;SDS011;54767;53.800;15.956;2023-05-07T02:33:32;6.00;;;4.50;;
67986;SDS011;54767;53.800;15.956;2023-05-07T02:36:10;6.70;;;4.60;;
67986;SDS011;54767;53.800;15.956;2023-05-07T02:38:39;8.70;;;5.20;;
67986;SDS011;54767;53.800;15.956;2023-05-07T02:41:07;7.10;;;5.20;;
67986;SDS011;54767;53.800;15.956;2023-05-07T02:43:36;9.10;;;4.90;;
67986;SDS011;54767;53.800;15.956;2023-05-07T02:46:05;7.60;;;5.10;;
67986;SDS011;54767;53.800;15.956;2023-05-07T02:48:34;9.00;;;5.10;;
67986;SDS011;54767;53.800;15.956;2023-05-07T02:51:03;8.00;;;5.10;;
67986;SDS011;54767;53.800;15.956;2023-05-07T02:53:33;9.00;;;5.10;;
67986;SDS011;54767;53.800;15.956;2023-05-07T02:56:02;10.10;;;5.30;;
67986;SDS011;54767;53.800;15.956;2023-05-07T02:58:30;9.30;;;5.30;;
67986;SDS011;54767;53.800;15.956;2023-05-07T03:00:59;8.50;;;5.40;;
67986;SDS011;54767;53.800;15.956;2023-05-07T03:03:27;9.10;;;5.10;;
67986;SDS011;54767;53.800;15.956;2023-05-07T03:05:56;9.30;;;5.70;;
67986;SDS011;54767;53.800;15.956;2023-05-07T03:08:24;10.20;;;5.60;;
67986;SDS011;54767;53.800;15.956;2023-05-07T03:10:53;11.30;;;5.80;;
67986;SDS011;54767;53.800;15.956;2023-05-07T03:13:21;9.60;;;5.20;;
67986;SDS011;54767;53.800;15.956;2023-05-07T03:15:49;9.20;;;5.50;;
67986;SDS011;54767;53.800;15.956;2023-05-07T03:18:18;7.80;;;4.90;;
67986;SDS011;54767;53.800;15.956;2023-05-07T03:20:47;8.00;;;5.20;;
67986;SDS011;54767;53.800;15.956;2023-05-07T03:23:16;8.80;;;5.20;;
67986;SDS011;54767;53.800;15.956;2023-05-07T03:25:45;9.10;;;5.20;;
67986;SDS011;54767;53.800;15.956;2023-05-07T03:28:13;11.60;;;5.90;;
67986;SDS011;54767;53.800;15.956;2023-05-07T03:30:41;9.10;;;5.20;;
67986;SDS011;54767;53.800;15.956;2023-05-07T03:33:09;10.70;;;5.40;;
67986;SDS011;54767;53.800;15.956;2023-05-07T03:35:38;8.30;;;5.00;;
67986;SDS011;54767;53.800;15.956;2023-05-07T03:38:06;10.40;;;5.70;;
67986;SDS011;54767;53.800;15.956;2023-05-07T03:40:35;8.30;;;5.70;;
67986;SDS011;54767;53.800;15.956;2023-05-07T03:43:03;8.80;;;5.20;;
67986;SDS011;54767;53.800;15.956;2023-05-07T03:45:31;8.10;;;5.10;;
67986;SDS011;54767;53.800;15.956;2023-05-07T03:48:00;8.60;;;5.60;;
67986;SDS011;54767;53.800;15.956;2023-05-07T03:50:28;8.90;;;4.90;;
67986;SDS011;54767;53.800;15.956;2023-05-07T03:52:57;9.20;;;5.60;;
67986;SDS011;54767;53.800;15.956;2023-05-07T03:55:25;12.70;;;6.10;;
67986;SDS011;54767;53.800;15.956;2023-05-07T03:57:53;13.40;;;6.60;;
67986;SDS011;54767;53.800;15.956;2023-05-07T04:00:22;14.50;;;6.50;;
67986;SDS011;54767;53.800;15.956;2023-05-07T04:02:50;10.60;;;5.90;;
67986;SDS011;54767;53.800;15.956;2023-05-07T04:05:18;10.10;;;5.80;;
67986;SDS011;54767;53.800;15.956;2023-05-07T04:07:47;10.90;;;6.00;;
67986;SDS011;54767;53.800;15.956;2023-05-07T04:10:15;9.70;;;6.00;;
67986;SDS011;54767;53.800;15.956;2023-05-07T04:12:43;10.00;;;5.80;;
67986;SDS011;54767;53.800;15.956;2023-05-07T04:15:12;11.90;;;6.50;;
67986;SDS011;54767;53.800;15.956;2023-05-07T04:17:40;8.90;;;5.50;;
67986;SDS011;54767;53.800;15.956;2023-05-07T04:20:09;8.70;;;5.60;;
67986;SDS011;54767;53.800;15.956;2023-05-07T04:22:42;9.20;;;5.50;;
67986;SDS011;54767;53.800;15.956;2023-05-07T04:25:10;8.70;;;5.60;;
67986;SDS011;54767;53.800;15.956;2023-05-07T04:27:39;9.50;;;5.30;;
67986;SDS011;54767;53.800;15.956;2023-05-07T04:30:07;13.30;;;6.20;;
67986;SDS011;54767;53.800;15.956;2023-05-07T04:32:36;20.70;;;8.60;;
67986;SDS011;54767;53.800;15.956;2023-05-07T04:35:05;15.70;;;7.90;;
67986;SDS011;54767;53.800;15.956;2023-05-07T04:37:34;14.00;;;7.60;;
67986;SDS011;54767;53.800;15.956;2023-05-07T04:40:03;13.00;;;7.30;;
67986;SDS011;54767;53.800;15.956;2023-05-07T04:42:32;10.60;;;6.50;;
67986;SDS011;54767;53.800;15.956;2023-05-07T04:45:01;9.00;;;5.70;;
67986;SDS011;54767;53.800;15.956;2023-05-07T04:47:30;9.60;;;5.80;;
67986;SDS011;54767;53.800;15.956;2023-05-07T04:49:58;11.10;;;6.10;;
67986;SDS011;54767;53.800;15.956;2023-05-07T04:52:27;11.50;;;6.20;;
67986;SDS011;54767;53.800;15.956;2023-05-07T04:54:56;9.80;;;6.50;;
67986;SDS011;54767;53.800;15.956;2023-05-07T04:57:24;13.30;;;8.50;;
67986;SDS011;54767;53.800;15.956;2023-05-07T04:59:53;12.50;;;8.30;;
67986;SDS011;54767;53.800;15.956;2023-05-07T05:02:22;13.40;;;8.10;;
67986;SDS011;54767;53.800;15.956;2023-05-07T05:04:50;13.20;;;7.20;;
67986;SDS011;54767;53.800;15.956;2023-05-07T05:07:18;10.20;;;6.10;;
67986;SDS011;54767;53.800;15.956;2023-05-07T05:09:46;10.80;;;5.80;;
67986;SDS011;54767;53.800;15.956;2023-05-07T05:12:15;12.30;;;5.70;;
67986;SDS011;54767;53.800;15.956;2023-05-07T05:14:43;11.30;;;5.90;;
67986;SDS011;54767;53.800;15.956;2023-05-07T05:17:11;11.10;;;5.80;;
67986;SDS011;54767;53.800;15.956;2023-05-07T05:19:39;10.20;;;6.30;;
67986;SDS011;54767;53.800;15.956;2023-05-07T05:22:08;15.60;;;6.90;;
67986;SDS011;54767;53.800;15.956;2023-05-07T05:24:36;13.70;;;7.20;;
67986;SDS011;54767;53.800;15.956;2023-05-07T05:27:04;10.60;;;6.30;;
67986;SDS011;54767;53.800;15.956;2023-05-07T05:29:33;24.40;;;17.60;;
67986;SDS011;54767;53.800;15.956;2023-05-07T05:32:01;20.40;;;13.50;;
67986;SDS011;54767;53.800;15.956;2023-05-07T05:34:29;18.90;;;11.60;;
67986;SDS011;54767;53.800;15.956;2023-05-07T05:36:58;34.40;;;24.90;;
67986;SDS011;54767;53.800;15.956;2023-05-07T05:39:27;13.60;;;7.40;;
67986;SDS011;54767;53.800;15.956;2023-05-07T05:41:55;13.80;;;9.20;;
67986;SDS011;54767;53.800;15.956;2023-05-07T05:44:23;9.70;;;6.60;;
67986;SDS011;54767;53.800;15.956;2023-05-07T05:46:53;9.20;;;5.90;;
67986;SDS011;54767;53.800;15.956;2023-05-07T05:49:27;8.50;;;5.60;;
67986;SDS011;54767;53.800;15.956;2023-05-07T05:51:55;10.80;;;6.60;;
67986;SDS011;54767;53.800;15.956;2023-05-07T05:54:23;12.10;;;7.10;;
67986;SDS011;54767;53.800;15.956;2023-05-07T05:56:52;12.10;;;7.50;;
67986;SDS011;54767;53.800;15.956;2023-05-07T05:59:21;14.10;;;9.20;;
67986;SDS011;54767;53.800;15.956;2023-05-07T06:01:49;17.30;;;10.10;;
67986;SDS011;54767;53.800;15.956;2023-05-07T06:04:18;20.50;;;11.20;;
67986;SDS011;54767;53.800;15.956;2023-05-07T06:06:46;15.60;;;9.50;;
67986;SDS011;54767;53.800;15.956;2023-05-07T06:09:14;12.20;;;6.90;;
67986;SDS011;54767;53.800;15.956;2023-05-07T06:11:42;12.30;;;7.50;;
67986;SDS011;54767;53.800;15.956;2023-05-07T06:14:11;13.00;;;8.60;;
67986;SDS011;54767;53.800;15.956;2023-05-07T06:16:39;11.40;;;7.20;;
67986;SDS011;54767;53.800;15.956;2023-05-07T06:19:07;13.10;;;8.30;;
67986;SDS011;54767;53.800;15.956;2023-05-07T06:21:36;10.10;;;6.20;;
67986;SDS011;54767;53.800;15.956;2023-05-07T06:24:04;8.80;;;5.90;;
67986;SDS011;54767;53.800;15.956;2023-05-07T06:26:32;8.60;;;6.20;;
67986;SDS011;54767;53.800;15.956;2023-05-07T06:29:01;7.40;;;5.60;;
67986;SDS011;54767;53.800;15.956;2023-05-07T06:31:29;10.30;;;6.60;;
67986;SDS011;54767;53.800;15.956;2023-05-07T06:34:01;9.40;;;6.60;;
67986;SDS011;54767;53.800;15.956;2023-05-07T06:36:30;9.30;;;5.40;;
67986;SDS011;54767;53.800;15.956;2023-05-07T06:38:58;9.20;;;5.90;;
67986;SDS011;54767;53.800;15.956;2023-05-07T06:41:26;10.70;;;6.00;;
67986;SDS011;54767;53.800;15.956;2023-05-07T06:43:55;10.60;;;5.90;;
67986;SDS011;54767;53.800;15.956;2023-05-07T06:46:23;10.00;;;5.70;;
67986;SDS011;54767;53.800;15.956;2023-05-07T06:48:52;9.40;;;5.90;;
67986;SDS011;54767;53.800;15.956;2023-05-07T06:51:20;11.50;;;6.40;;
67986;SDS011;54767;53.800;15.956;2023-05-07T06:53:48;10.40;;;6.30;;
67986;SDS011;54767;53.800;15.956;2023-05-07T06:56:18;8.80;;;5.50;;
67986;SDS011;54767;53.800;15.956;2023-05-07T06:58:46;8.10;;;5.60;;
67986;SDS011;54767;53.800;15.956;2023-05-07T07:01:15;10.10;;;5.60;;
67986;SDS011;54767;53.800;15.956;2023-05-07T07:03:43;8.50;;;5.40;;
67986;SDS011;54767;53.800;15.956;2023-05-07T07:06:11;10.60;;;5.20;;
67986;SDS011;54767;53.800;15.956;2023-05-07T07:08:40;7.70;;;5.10;;
67986;SDS011;54767;53.800;15.956;2023-05-07T07:11:08;7.20;;;4.90;;
67986;SDS011;54767;53.800;15.956;2023-05-07T07:16:06;8.90;;;4.80;;
67986;SDS011;54767;53.800;15.956;2023-05-07T07:18:34;9.00;;;4.90;;
67986;SDS011;54767;53.800;15.956;2023-05-07T07:21:03;6.70;;;4.60;;
67986;SDS011;54767;53.800;15.956;2023-05-07T07:23:32;6.80;;;4.50;;
67986;SDS011;54767;53.800;15.956;2023-05-07T07:26:00;8.20;;;5.40;;
67986;SDS011;54767;53.800;15.956;2023-05-07T07:28:28;8.70;;;5.20;;
67986;SDS011;54767;53.800;15.956;2023-05-07T07:30:57;7.00;;;4.30;;
67986;SDS011;54767;53.800;15.956;2023-05-07T07:33:25;5.70;;;4.20;;
67986;SDS011;54767;53.800;15.956;2023-05-07T07:35:55;8.20;;;5.40;;
67986;SDS011;54767;53.800;15.956;2023-05-07T07:38:23;9.80;;;4.90;;
67986;SDS011;54767;53.800;15.956;2023-05-07T07:40:51;6.70;;;4.60;;
67986;SDS011;54767;53.800;15.956;2023-05-07T07:43:20;6.60;;;5.40;;
67986;SDS011;54767;53.800;15.956;2023-05-07T07:45:48;7.90;;;5.20;;
67986;SDS011;54767;53.800;15.956;2023-05-07T07:48:16;11.10;;;5.00;;
67986;SDS011;54767;53.800;15.956;2023-05-07T07:50:45;7.30;;;4.50;;
67986;SDS011;54767;53.800;15.956;2023-05-07T07:53:16;8.10;;;4.30;;
67986;SDS011;54767;53.800;15.956;2023-05-07T07:55:45;7.00;;;4.60;;
67986;SDS011;54767;53.800;15.956;2023-05-07T07:58:13;6.60;;;4.90;;
67986;SDS011;54767;53.800;15.956;2023-05-07T08:00:42;11.00;;;7.60;;
67986;SDS011;54767;53.800;15.956;2023-05-07T08:03:10;10.50;;;6.80;;
67986;SDS011;54767;53.800;15.956;2023-05-07T08:05:39;7.10;;;4.00;;
67986;SDS011;54767;53.800;15.956;2023-05-07T08:08:07;5.30;;;3.90;;
67986;SDS011;54767;53.800;15.956;2023-05-07T08:10:37;6.00;;;3.70;;
67986;SDS011;54767;53.800;15.956;2023-05-07T08:13:07;6.80;;;3.90;;
67986;SDS011;54767;53.800;15.956;2023-05-07T08:15:35;5.60;;;3.60;;
67986;SDS011;54767;53.800;15.956;2023-05-07T08:18:04;6.70;;;3.50;;
67986;SDS011;54767;53.800;15.956;2023-05-07T08:20:32;4.00;;;3.60;;
67986;SDS011;54767;53.800;15.956;2023-05-07T08:23:01;5.00;;;3.30;;
67986;SDS011;54767;53.800;15.956;2023-05-07T08:25:29;5.80;;;3.50;;
67986;SDS011;54767;53.800;15.956;2023-05-07T08:27:58;4.70;;;3.40;;
67986;SDS011;54767;53.800;15.956;2023-05-07T08:30:26;4.20;;;3.50;;
67986;SDS011;54767;53.800;15.956;2023-05-07T08:32:54;5.30;;;3.40;;
67986;SDS011;54767;53.800;15.956;2023-05-07T08:35:23;3.80;;;3.10;;
67986;SDS011;54767;53.800;15.956;2023-05-07T08:37:52;5.50;;;3.50;;
67986;SDS011;54767;53.800;15.956;2023-05-07T08:40:22;4.60;;;3.40;;
67986;SDS011;54767;53.800;15.956;2023-05-07T08:42:54;6.00;;;3.60;;
67986;SDS011;54767;53.800;15.956;2023-05-07T08:45:24;5.30;;;4.10;;
67986;SDS011;54767;53.800;15.956;2023-05-07T08:48:18;4.70;;;2.90;;
67986;SDS011;54767;53.800;15.956;2023-05-07T08:50:50;6.00;;;3.10;;
67986;SDS011;54767;53.800;15.956;2023-05-07T08:53:19;4.90;;;3.40;;
67986;SDS011;54767;53.800;15.956;2023-05-07T08:55:48;4.80;;;3.20;;
67986;SDS011;54767;53.800;15.956;2023-05-07T08:58:17;4.40;;;3.20;;
67986;SDS011;54767;53.800;15.956;2023-05-07T09:00:46;4.50;;;4.00;;
67986;SDS011;54767;53.800;15.956;2023-05-07T09:03:15;10.80;;;4.90;;
67986;SDS011;54767;53.800;15.956;2023-05-07T09:05:44;5.20;;;3.40;;
67986;SDS011;54767;53.800;15.956;2023-05-07T09:08:14;5.20;;;3.40;;
67986;SDS011;54767;53.800;15.956;2023-05-07T09:10:44;3.60;;;3.30;;
67986;SDS011;54767;53.800;15.956;2023-05-07T09:13:12;6.00;;;3.00;;
67986;SDS011;54767;53.800;15.956;2023-05-07T09:15:42;4.60;;;2.60;;
67986;SDS011;54767;53.800;15.956;2023-05-07T09:18:11;3.70;;;3.20;;
67986;SDS011;54767;53.800;15.956;2023-05-07T09:20:43;3.20;;;2.90;;
67986;SDS011;54767;53.800;15.956;2023-05-07T09:23:11;3.80;;;3.40;;
67986;SDS011;54767;53.800;15.956;2023-05-07T09:25:40;4.70;;;3.20;;
67986;SDS011;54767;53.800;15.956;2023-05-07T09:28:08;8.80;;;3.20;;
67986;SDS011;54767;53.800;15.956;2023-05-07T09:30:38;4.70;;;3.60;;
67986;SDS011;54767;53.800;15.956;2023-05-07T09:33:06;6.10;;;3.20;;
67986;SDS011;54767;53.800;15.956;2023-05-07T09:35:35;3.40;;;3.10;;
67986;SDS011;54767;53.800;15.956;2023-05-07T09:38:05;3.80;;;3.00;;
67986;SDS011;54767;53.800;15.956;2023-05-07T09:40:33;3.30;;;3.00;;
67986;SDS011;54767;53.800;15.956;2023-05-07T09:43:11;7.60;;;4.10;;
67986;SDS011;54767;53.800;15.956;2023-05-07T09:45:41;6.10;;;4.40;;
67986;SDS011;54767;53.800;15.956;2023-05-07T09:48:11;4.30;;;3.30;;
67986;SDS011;54767;53.800;15.956;2023-05-07T09:50:48;6.50;;;4.00;;
67986;SDS011;54767;53.800;15.956;2023-05-07T09:53:19;5.30;;;3.80;;
67986;SDS011;54767;53.800;15.956;2023-05-07T09:55:49;8.10;;;4.20;;
67986;SDS011;54767;53.800;15.956;2023-05-07T09:58:21;6.00;;;3.90;;
67986;SDS011;54767;53.800;15.956;2023-05-07T10:03:21;6.60;;;3.70;;
67986;SDS011;54767;53.800;15.956;2023-05-07T10:05:50;4.70;;;3.50;;
67986;SDS011;54767;53.800;15.956;2023-05-07T10:08:19;5.10;;;3.30;;
67986;SDS011;54767;53.800;15.956;2023-05-07T10:10:49;3.20;;;2.90;;
67986;SDS011;54767;53.800;15.956;2023-05-07T10:13:18;5.00;;;3.20;;
67986;SDS011;54767;53.800;15.956;2023-05-07T10:15:47;4.70;;;3.40;;
67986;SDS011;54767;53.800;15.956;2023-05-07T10:18:16;4.20;;;3.10;;
67986;SDS011;54767;53.800;15.956;2023-05-07T10:20:50;5.80;;;4.10;;
67986;SDS011;54767;53.800;15.956;2023-05-07T10:24:05;4.20;;;3.60;;
67986;SDS011;54767;53.800;15.956;2023-05-07T10:26:45;3.80;;;3.10;;
67986;SDS011;54767;53.800;15.956;2023-05-07T10:32:22;2.90;;;2.50;;
67986;SDS011;54767;53.800;15.956;2023-05-07T10:34:54;4.30;;;3.00;;
67986;SDS011;54767;53.800;15.956;2023-05-07T10:37:24;4.60;;;3.00;;
67986;SDS011;54767;53.800;15.956;2023-05-07T10:39:53;3.80;;;3.10;;
67986;SDS011;54767;53.800;15.956;2023-05-07T10:42:21;4.50;;;3.00;;
67986;SDS011;54767;53.800;15.956;2023-05-07T10:44:50;3.40;;;2.50;;
67986;SDS011;54767;53.800;15.956;2023-05-07T10:47:18;5.30;;;2.80;;
67986;SDS011;54767;53.800;15.956;2023-05-07T10:52:17;2.90;;;2.50;;
67986;SDS011;54767;53.800;15.956;2023-05-07T10:54:49;2.50;;;2.30;;
67986;SDS011;54767;53.800;15.956;2023-05-07T10:57:46;3.60;;;2.80;;
67986;SDS011;54767;53.800;15.956;2023-05-07T11:03:15;3.20;;;2.90;;
67986;SDS011;54767;53.800;15.956;2023-05-07T11:06:07;6.80;;;2.70;;
67986;SDS011;54767;53.800;15.956;2023-05-07T11:08:52;4.10;;;2.70;;
67986;SDS011;54767;53.800;15.956;2023-05-07T11:17:10;3.90;;;2.70;;
67986;SDS011;54767;53.800;15.956;2023-05-07T11:19:52;5.00;;;3.30;;
67986;SDS011;54767;53.800;15.956;2023-05-07T11:25:08;6.00;;;2.60;;
67986;SDS011;54767;53.800;15.956;2023-05-07T11:27:37;6.30;;;2.60;;
67986;SDS011;54767;53.800;15.956;2023-05-07T11:30:06;2.70;;;2.50;;
67986;SDS011;54767;53.800;15.956;2023-05-07T11:37:37;3.20;;;2.50;;
67986;SDS011;54767;53.800;15.956;2023-05-07T11:41:09;3.20;;;2.60;;
67986;SDS011;54767;53.800;15.956;2023-05-07T11:43:40;3.20;;;2.60;;
67986;SDS011;54767;53.800;15.956;2023-05-07T11:46:23;3.70;;;2.60;;
67986;SDS011;54767;53.800;15.956;2023-05-07T11:48:52;4.40;;;2.70;;
67986;SDS011;54767;53.800;15.956;2023-05-07T11:51:22;3.70;;;2.50;;
67986;SDS011;54767;53.800;15.956;2023-05-07T11:53:56;3.50;;;2.50;;
67986;SDS011;54767;53.800;15.956;2023-05-07T11:56:24;3.20;;;2.70;;
67986;SDS011;54767;53.800;15.956;2023-05-07T11:58:53;10.50;;;7.20;;
67986;SDS011;54767;53.800;15.956;2023-05-07T12:01:21;5.40;;;2.90;;
67986;SDS011;54767;53.800;15.956;2023-05-07T12:03:49;3.70;;;2.40;;
67986;SDS011;54767;53.800;15.956;2023-05-07T12:06:18;4.60;;;2.50;;
67986;SDS011;54767;53.800;15.956;2023-05-07T12:08:47;5.00;;;2.70;;
67986;SDS011;54767;53.800;15.956;2023-05-07T12:11:16;4.40;;;3.00;;
67986;SDS011;54767;53.800;15.956;2023-05-07T12:13:51;2.30;;;2.10;;
67986;SDS011;54767;53.800;15.956;2023-05-07T12:16:26;3.10;;;2.30;;
67986;SDS011;54767;53.800;15.956;2023-05-07T12:21:26;2.40;;;2.20;;
67986;SDS011;54767;53.800;15.956;2023-05-07T12:23:56;3.40;;;2.70;;
67986;SDS011;54767;53.800;15.956;2023-05-07T12:26:24;3.30;;;2.70;;
67986;SDS011;54767;53.800;15.956;2023-05-07T12:28:53;2.60;;;2.40;;
67986;SDS011;54767;53.800;15.956;2023-05-07T12:31:22;3.60;;;2.50;;
67986;SDS011;54767;53.800;15.956;2023-05-07T12:33:53;2.40;;;1.80;;
67986;SDS011;54767;53.800;15.956;2023-05-07T12:36:22;2.50;;;2.10;;
67986;SDS011;54767;53.800;15.956;2023-05-07T12:38:50;2.90;;;2.40;;
67986;SDS011;54767;53.800;15.956;2023-05-07T12:41:19;3.80;;;2.40;;
67986;SDS011;54767;53.800;15.956;2023-05-07T12:43:55;2.50;;;2.30;;
67986;SDS011;54767;53.800;15.956;2023-05-07T12:46:25;4.20;;;3.60;;
67986;SDS011;54767;53.800;15.956;2023-05-07T12:48:53;5.00;;;3.70;;
67986;SDS011;54767;53.800;15.956;2023-05-07T12:51:22;4.40;;;2.70;;
67986;SDS011;54767;53.800;15.956;2023-05-07T12:53:50;3.00;;;2.50;;
67986;SDS011;54767;53.800;15.956;2023-05-07T12:56:18;2.70;;;2.50;;
67986;SDS011;54767;53.800;15.956;2023-05-07T12:58:48;3.20;;;2.40;;
67986;SDS011;54767;53.800;15.956;2023-05-07T13:01:16;2.60;;;2.40;;
67986;SDS011;54767;53.800;15.956;2023-05-07T13:03:50;2.60;;;2.40;;
67986;SDS011;54767;53.800;15.956;2023-05-07T13:06:19;3.90;;;2.50;;
67986;SDS011;54767;53.800;15.956;2023-05-07T13:08:47;3.10;;;2.50;;
67986;SDS011;54767;53.800;15.956;2023-05-07T13:11:16;3.50;;;2.40;;
67986;SDS011;54767;53.800;15.956;2023-05-07T13:13:46;3.30;;;2.50;;
67986;SDS011;54767;53.800;15.956;2023-05-07T13:16:14;6.80;;;3.40;;
67986;SDS011;54767;53.800;15.956;2023-05-07T13:18:43;5.10;;;2.70;;
67986;SDS011;54767;53.800;15.956;2023-05-07T13:21:15;2.90;;;2.50;;
67986;SDS011;54767;53.800;15.956;2023-05-07T13:23:43;4.50;;;2.80;;
67986;SDS011;54767;53.800;15.956;2023-05-07T13:26:12;3.70;;;2.90;;
67986;SDS011;54767;53.800;15.956;2023-05-07T13:28:53;4.20;;;3.00;;
67986;SDS011;54767;53.800;15.956;2023-05-07T13:31:22;6.00;;;3.00;;
67986;SDS011;54767;53.800;15.956;2023-05-07T13:33:51;3.50;;;2.60;;
67986;SDS011;54767;53.800;15.956;2023-05-07T13:36:21;2.90;;;2.60;;
67986;SDS011;54767;53.800;15.956;2023-05-07T13:38:50;3.60;;;2.50;;
67986;SDS011;54767;53.800;15.956;2023-05-07T13:41:19;3.50;;;2.50;;
67986;SDS011;54767;53.800;15.956;2023-05-07T13:43:48;3.90;;;2.60;;
67986;SDS011;54767;53.800;15.956;2023-05-07T13:46:17;2.70;;;2.50;;
67986;SDS011;54767;53.800;15.956;2023-05-07T13:48:53;3.80;;;2.60;;
67986;SDS011;54767;53.800;15.956;2023-05-07T13:51:52;6.40;;;4.70;;
67986;SDS011;54767;53.800;15.956;2023-05-07T13:54:30;5.20;;;2.70;;
67986;SDS011;54767;53.800;15.956;2023-05-07T13:57:37;2.20;;;2.00;;
67986;SDS011;54767;53.800;15.956;2023-05-07T14:00:06;2.90;;;2.20;;
67986;SDS011;54767;53.800;15.956;2023-05-07T14:02:36;2.70;;;2.10;;
67986;SDS011;54767;53.800;15.956;2023-05-07T14:05:07;3.40;;;2.30;;
67986;SDS011;54767;53.800;15.956;2023-05-07T14:07:37;3.30;;;2.80;;
67986;SDS011;54767;53.800;15.956;2023-05-07T14:10:09;4.80;;;2.60;;
67986;SDS011;54767;53.800;15.956;2023-05-07T14:12:42;2.80;;;2.60;;
67986;SDS011;54767;53.800;15.956;2023-05-07T14:17:40;12.30;;;3.00;;
67986;SDS011;54767;53.800;15.956;2023-05-07T14:20:08;3.00;;;2.50;;
67986;SDS011;54767;53.800;15.956;2023-05-07T14:22:39;4.40;;;2.90;;
67986;SDS011;54767;53.800;15.956;2023-05-07T14:25:07;4.50;;;3.50;;
67986;SDS011;54767;53.800;15.956;2023-05-07T14:27:37;4.00;;;2.40;;
67986;SDS011;54767;53.800;15.956;2023-05-07T14:30:06;4.10;;;2.90;;
67986;SDS011;54767;53.800;15.956;2023-05-07T14:32:35;2.90;;;2.30;;
67986;SDS011;54767;53.800;15.956;2023-05-07T14:35:04;2.40;;;2.00;;
67986;SDS011;54767;53.800;15.956;2023-05-07T14:37:32;2.50;;;2.30;;
67986;SDS011;54767;53.800;15.956;2023-05-07T14:40:01;2.70;;;2.00;;
67986;SDS011;54767;53.800;15.956;2023-05-07T14:42:29;3.70;;;2.60;;
67986;SDS011;54767;53.800;15.956;2023-05-07T14:45:01;4.30;;;3.20;;
67986;SDS011;54767;53.800;15.956;2023-05-07T14:47:30;3.90;;;2.80;;
67986;SDS011;54767;53.800;15.956;2023-05-07T14:49:58;2.70;;;2.50;;
67986;SDS011;54767;53.800;15.956;2023-05-07T14:52:29;3.10;;;2.70;;
67986;SDS011;54767;53.800;15.956;2023-05-07T14:54:57;3.10;;;2.60;;
67986;SDS011;54767;53.800;15.956;2023-05-07T14:57:25;4.60;;;2.60;;
67986;SDS011;54767;53.800;15.956;2023-05-07T14:59:54;6.30;;;3.30;;
67986;SDS011;54767;53.800;15.956;2023-05-07T15:02:22;5.00;;;3.30;;
67986;SDS011;54767;53.800;15.956;2023-05-07T15:04:51;4.40;;;2.60;;
67986;SDS011;54767;53.800;15.956;2023-05-07T15:07:19;4.80;;;2.90;;
67986;SDS011;54767;53.800;15.956;2023-05-07T15:09:48;4.90;;;2.40;;
67986;SDS011;54767;53.800;15.956;2023-05-07T15:12:16;2.30;;;2.10;;
67986;SDS011;54767;53.800;15.956;2023-05-07T15:14:44;3.90;;;2.90;;
67986;SDS011;54767;53.800;15.956;2023-05-07T15:17:13;5.60;;;3.20;;
67986;SDS011;54767;53.800;15.956;2023-05-07T15:19:42;5.20;;;3.20;;
67986;SDS011;54767;53.800;15.956;2023-05-07T15:22:11;6.50;;;3.30;;
67986;SDS011;54767;53.800;15.956;2023-05-07T15:24:39;6.20;;;3.60;;